75LL weather

Hausmann Airport
Wyoming, Illinois, United States

Public forecast

Using degrees Fahrenheit for public forecast. Weather courtesy of forecast.io.

Closest aviation weather report (METAR) to Hausmann Airport

Closest report is Marshall County Airport, 17.2 nm (31.9 km) ESE. Retrieved 2020/07/05 03:35 UTC (0 seconds ago):

KC75 050335Z AUTO 00000KT 10SM CLR 23/19 A2997 RMK AO2 T02260193

Closest aviation forecast (TAF) to Hausmann Airport

Closest forecast is General Wayne A. Downing Peoria International Airport, 25.4 nm (47.0 km) S. Retrieved 2020-07-05 00:22 UTC (3 hours ago):

TAF KPIA 042320Z 0500/0524 VRB03KT P6SM FEW070 FEW200